Time;durP1;ratioP1;P1;durP2;ratioP2;P2;SDS_P1;SDS_P2;PMS_P1;PMS_P2;Temp;Humidity;BMP_temperature;BMP_pressure;BME280_temperature;BME280_humidity;BME280_pressure;Samples;Min_cycle;Max_cycle;Signal;HPM_P1;HPM_P2
2022/07/30 04:00:51;;;;;;;6.43;5.70;;;18.40;99.90;;;;;;5875970;23;20504;-75
2022/07/30 04:03:25;;;;;;;6.03;5.53;;;18.50;99.90;;;;;;5045727;28;20824;-75
2022/07/30 04:05:52;;;;;;;6.23;5.67;;;18.40;99.90;;;;;;5045381;28;20441;-74
2022/07/30 04:08:19;;;;;;;6.83;5.70;;;18.40;99.90;;;;;;5045222;28;21011;-75
2022/07/30 04:10:46;;;;;;;7.37;5.70;;;18.40;99.90;;;;;;5045353;28;20481;-75
2022/07/30 04:13:13;;;;;;;7.90;5.47;;;18.40;99.90;;;;;;5045595;28;20465;-75
2022/07/30 04:15:47;;;;;;;6.53;5.77;;;18.40;99.90;;;;;;5045219;28;20457;-75
2022/07/30 04:18:17;;;;;;;8.40;5.73;;;18.40;99.90;;;;;;5045320;28;20836;-75
2022/07/30 04:20:46;;;;;;;6.20;5.60;;;18.40;99.90;;;;;;5044669;28;20483;-75
2022/07/30 04:23:14;;;;;;;7.23;6.50;;;18.30;99.90;;;;;;5045978;28;20445;-75
2022/07/30 04:25:42;;;;;;;8.83;6.37;;;18.30;99.90;;;;;;5045042;28;20961;-75
2022/07/30 04:28:10;;;;;;;6.63;5.90;;;18.30;99.90;;;;;;5045466;28;20460;-75
2022/07/30 04:30:38;;;;;;;6.00;5.40;;;18.30;99.90;;;;;;5044251;28;20608;-75
2022/07/30 04:33:05;;;;;;;8.53;5.43;;;18.30;99.90;;;;;;5045321;28;20461;-75
2022/07/30 04:35:34;;;;;;;6.93;6.23;;;18.30;99.90;;;;;;5045144;28;20456;-75
2022/07/30 04:38:02;;;;;;;7.80;7.00;;;18.30;99.90;;;;;;5045325;28;20463;-75
2022/07/30 04:40:30;;;;;;;6.07;5.50;;;18.20;99.90;;;;;;5045615;28;20465;-75
2022/07/30 04:42:57;;;;;;;7.10;6.40;;;18.20;99.90;;;;;;5045587;28;20464;-75
2022/07/30 04:45:24;;;;;;;7.33;6.63;;;18.20;99.90;;;;;;5044885;28;20849;-75
2022/07/30 04:47:52;;;;;;;8.27;6.67;;;18.20;99.90;;;;;;5045135;28;20467;-75
2022/07/30 04:50:22;;;;;;;8.47;6.60;;;18.20;99.90;;;;;;5045181;28;21389;-75
2022/07/30 04:52:52;;;;;;;7.90;6.23;;;18.20;99.90;;;;;;5045141;28;20457;-75
2022/07/30 04:55:19;;;;;;;7.70;6.50;;;18.20;99.90;;;;;;5044693;28;20552;-75
2022/07/30 04:57:48;;;;;;;7.00;6.30;;;18.10;99.90;;;;;;5045327;28;20834;-75
2022/07/30 05:00:16;;;;;;;7.30;6.57;;;18.10;99.90;;;;;;5044914;28;20449;-75
2022/07/30 05:02:44;;;;;;;7.83;6.57;;;18.10;99.90;;;;;;5045206;28;21124;-75
2022/07/30 05:05:12;;;;;;;7.50;6.70;;;18.10;99.90;;;;;;5044434;28;20824;-75
2022/07/30 05:07:39;;;;;;;9.30;6.90;;;18.10;99.90;;;;;;5045324;28;20465;-75
2022/07/30 05:10:09;;;;;;;8.40;7.50;;;18.10;99.90;;;;;;5044979;28;20496;-75
2022/07/30 05:12:37;;;;;;;9.80;7.10;;;18.20;99.90;;;;;;5044874;28;21284;-75
2022/07/30 05:15:04;;;;;;;7.10;6.40;;;18.10;99.90;;;;;;5044915;28;20460;-75
2022/07/30 05:17:31;;;;;;;6.43;5.50;;;18.10;99.90;;;;;;5045201;28;20453;-75
2022/07/30 05:19:57;;;;;;;8.97;6.70;;;18.10;99.90;;;;;;5044936;28;20961;-75
2022/07/30 05:22:28;;;;;;;8.50;6.70;;;18.10;99.90;;;;;;5045200;28;20479;-75
2022/07/30 05:24:55;;;;;;;8.03;6.87;;;18.10;99.90;;;;;;5044383;28;20441;-75
2022/07/30 05:27:24;;;;;;;7.43;6.73;;;18.20;99.90;;;;;;5045292;28;20544;-75
2022/07/30 05:29:51;;;;;;;10.10;7.57;;;18.20;99.90;;;;;;5045381;28;20528;-75
2022/07/30 05:32:17;;;;;;;11.20;7.60;;;18.20;99.90;;;;;;5043495;28;20473;-75
2022/07/30 05:34:44;;;;;;;7.27;6.57;;;18.20;99.90;;;;;;5044565;28;20456;-75
2022/07/30 05:37:11;;;;;;;9.87;7.03;;;18.20;99.90;;;;;;5045180;28;20455;-75
2022/07/30 05:39:38;;;;;;;10.40;7.40;;;18.30;99.90;;;;;;5047139;28;20467;-75
2022/07/30 05:42:05;;;;;;;6.67;6.03;;;18.30;99.90;;;;;;5048238;28;21289;-75
2022/07/30 05:44:33;;;;;;;11.07;6.90;;;18.30;99.90;;;;;;5048281;28;20828;-75
2022/07/30 05:47:00;;;;;;;7.20;6.30;;;18.30;99.90;;;;;;5048669;28;20473;-75
2022/07/30 05:49:27;;;;;;;7.00;6.33;;;18.30;99.90;;;;;;5048601;28;20493;-70
2022/07/30 05:51:53;;;;;;;8.57;7.00;;;18.30;99.90;;;;;;5048282;28;20485;-70
2022/07/30 05:54:20;;;;;;;8.40;7.57;;;18.30;99.90;;;;;;5047644;28;20453;-70
2022/07/30 05:56:47;;;;;;;9.23;7.50;;;18.30;99.90;;;;;;5048451;28;20460;-70
2022/07/30 05:59:14;;;;;;;8.10;7.10;;;18.30;99.90;;;;;;5048458;28;20456;-70
2022/07/30 06:01:42;;;;;;;11.00;8.20;;;18.30;99.90;;;;;;5048314;28;20495;-69
2022/07/30 06:04:09;;;;;;;8.27;7.13;;;18.40;99.90;;;;;;5047744;28;20459;-70
2022/07/30 06:06:36;;;;;;;8.77;7.87;;;18.40;99.90;;;;;;5048379;28;21099;-70
2022/07/30 06:09:02;;;;;;;8.43;7.00;;;18.40;99.90;;;;;;5047625;28;20586;-70
2022/07/30 06:11:29;;;;;;;9.23;8.07;;;18.40;99.90;;;;;;5048049;28;20472;-70
2022/07/30 06:13:56;;;;;;;7.97;7.10;;;18.40;99.90;;;;;;5048175;28;20965;-70
2022/07/30 06:16:23;;;;;;;9.67;6.83;;;18.40;99.90;;;;;;5047932;28;20457;-70
2022/07/30 06:18:51;;;;;;;10.00;7.40;;;18.40;99.90;;;;;;5047985;28;20453;-70
2022/07/30 06:21:18;;;;;;;10.10;7.37;;;18.40;99.90;;;;;;5047268;28;20469;-70
2022/07/30 06:23:45;;;;;;;8.53;6.90;;;18.40;99.90;;;;;;5047704;28;20441;-70
2022/07/30 06:26:11;;;;;;;9.03;7.40;;;18.40;99.90;;;;;;5048244;28;20461;-78
2022/07/30 06:28:38;;;;;;;9.17;7.10;;;18.40;99.90;;;;;;5050732;28;21261;-78
2022/07/30 06:31:05;;;;;;;14.50;7.00;;;18.40;99.90;;;;;;5050093;28;20496;-78
2022/07/30 06:33:32;;;;;;;8.90;6.20;;;18.40;99.90;;;;;;5050181;28;20476;-78
2022/07/30 06:36:00;;;;;;;7.47;5.67;;;18.40;99.90;;;;;;5049731;28;20461;-78
2022/07/30 06:38:27;;;;;;;11.30;7.97;;;18.40;99.90;;;;;;5051370;28;20472;-78
2022/07/30 06:40:54;;;;;;;8.47;6.37;;;18.50;99.90;;;;;;5052063;28;20479;-78
2022/07/30 06:43:20;;;;;;;15.07;6.93;;;18.50;99.90;;;;;;5053758;28;20461;-77
2022/07/30 06:45:47;;;;;;;12.70;7.17;;;18.50;99.90;;;;;;5052661;28;20506;-78
2022/07/30 06:48:14;;;;;;;8.70;6.97;;;18.60;99.90;;;;;;5053981;28;21032;-78
2022/07/30 06:50:41;;;;;;;9.87;7.10;;;18.70;99.90;;;;;;5054457;28;20523;-77
2022/07/30 06:53:10;;;;;;;10.67;6.97;;;18.70;99.90;;;;;;5056337;28;20460;-78
2022/07/30 06:55:36;;;;;;;11.10;7.60;;;18.70;99.90;;;;;;5055405;28;20540;-78
2022/07/30 06:58:03;;;;;;;8.27;7.37;;;18.70;99.90;;;;;;5060502;28;20521;-78
2022/07/30 07:00:30;;;;;;;8.80;7.50;;;18.80;99.90;;;;;;5052479;28;20684;-79
2022/07/30 07:02:57;;;;;;;9.90;7.07;;;18.80;99.90;;;;;;5049845;28;20465;-77
2022/07/30 07:05:27;;;;;;;9.10;7.00;;;18.90;99.90;;;;;;5048679;28;20457;-78
2022/07/30 07:07:54;;;;;;;9.90;7.60;;;18.90;99.90;;;;;;5049437;28;20445;-78
2022/07/30 07:10:22;;;;;;;10.27;7.70;;;19.00;99.90;;;;;;5049827;28;20503;-78
2022/07/30 07:12:49;;;;;;;11.47;7.53;;;19.10;99.90;;;;;;5049672;28;20526;-78
2022/07/30 07:15:16;;;;;;;10.27;8.00;;;19.10;99.90;;;;;;5049332;28;20461;-78
2022/07/30 07:17:43;;;;;;;10.10;6.70;;;19.20;99.90;;;;;;5050041;28;20456;-78
2022/07/30 07:20:11;;;;;;;10.23;7.77;;;19.30;99.90;;;;;;5049024;28;20997;-72
2022/07/30 07:22:37;;;;;;;11.63;6.90;;;19.30;99.90;;;;;;5045713;28;20977;-68
2022/07/30 07:25:05;;;;;;;8.73;6.60;;;19.40;99.90;;;;;;5045419;28;20579;-67
2022/07/30 07:27:33;;;;;;;11.00;6.73;;;19.40;99.90;;;;;;5045925;28;20453;-68
2022/07/30 07:30:00;;;;;;;9.03;6.70;;;19.50;99.90;;;;;;5045433;28;20493;-67
2022/07/30 07:32:27;;;;;;;9.80;6.00;;;19.60;99.90;;;;;;5045458;28;20583;-68
2022/07/30 07:34:54;;;;;;;10.40;5.87;;;19.70;99.90;;;;;;5045253;28;20821;-67
2022/07/30 07:37:21;;;;;;;10.73;7.00;;;19.70;99.90;;;;;;5046228;28;20949;-67
2022/07/30 07:39:48;;;;;;;7.47;6.13;;;19.90;99.90;;;;;;5046511;28;20471;-67
2022/07/30 07:42:15;;;;;;;8.33;6.50;;;19.90;99.90;;;;;;5046327;28;20481;-67
2022/07/30 07:44:43;;;;;;;8.93;7.10;;;20.00;99.90;;;;;;5045827;28;20464;-67
2022/07/30 07:47:10;;;;;;;16.03;5.93;;;20.10;99.90;;;;;;5046624;28;21114;-67
2022/07/30 07:49:36;;;;;;;10.43;6.93;;;20.20;99.90;;;;;;5046465;28;20500;-67
2022/07/30 07:52:04;;;;;;;7.97;6.20;;;20.30;99.90;;;;;;5046118;28;21011;-68
2022/07/30 07:54:30;;;;;;;11.63;6.20;;;20.40;99.90;;;;;;5045477;28;20461;-68
2022/07/30 07:56:57;;;;;;;9.30;5.67;;;20.50;99.90;;;;;;5046609;28;20463;-69
2022/07/30 07:59:25;;;;;;;10.17;6.40;;;20.50;99.90;;;;;;5046275;28;20519;-71
2022/07/30 08:01:53;;;;;;;11.30;5.20;;;20.50;99.90;;;;;;5045056;28;20492;-65
2022/07/30 08:04:20;;;;;;;10.60;5.83;;;20.60;99.90;;;;;;5045215;28;20948;-65
2022/07/30 08:06:47;;;;;;;7.27;5.10;;;20.60;99.90;;;;;;5046025;28;20459;-65
2022/07/30 08:09:14;;;;;;;10.27;5.13;;;20.70;99.90;;;;;;5045861;28;20461;-67
2022/07/30 08:11:40;;;;;;;9.77;6.90;;;20.80;99.90;;;;;;5045748;28;20992;-68
2022/07/30 08:14:07;;;;;;;12.20;7.37;;;20.80;99.90;;;;;;5045117;28;20461;-68
2022/07/30 08:16:34;;;;;;;17.67;5.50;;;20.90;99.90;;;;;;5045997;28;20461;-66
2022/07/30 08:19:02;;;;;;;11.40;5.63;;;20.90;99.90;;;;;;5045956;28;20461;-68
2022/07/30 08:21:29;;;;;;;8.17;5.93;;;21.00;99.90;;;;;;5045440;28;20531;-67
2022/07/30 08:23:56;;;;;;;8.93;5.97;;;21.10;99.90;;;;;;5045774;28;20453;-71
2022/07/30 08:26:23;;;;;;;8.33;5.70;;;21.20;99.90;;;;;;5045311;28;20544;-70
2022/07/30 08:28:50;;;;;;;8.50;4.60;;;21.30;99.90;;;;;;5045500;28;21448;-69
2022/07/30 08:31:16;;;;;;;6.70;5.20;;;21.30;99.90;;;;;;5045723;28;20496;-68
2022/07/30 08:33:43;;;;;;;6.47;4.33;;;21.50;99.90;;;;;;5045894;28;20469;-68
2022/07/30 08:36:12;;;;;;;8.70;4.97;;;21.50;99.90;;;;;;5044725;28;20940;-68
2022/07/30 08:38:39;;;;;;;6.30;4.80;;;21.60;99.90;;;;;;5045324;28;20465;-68
2022/07/30 08:41:06;;;;;;;10.80;4.60;;;21.70;99.90;;;;;;5045181;28;20503;-68
2022/07/30 08:43:35;;;;;;;4.70;3.97;;;21.80;99.90;;;;;;5045479;28;20468;-68
2022/07/30 08:46:03;;;;;;;9.67;4.83;;;21.80;99.90;;;;;;5044944;28;20457;-68
2022/07/30 08:48:30;;;;;;;8.23;5.87;;;21.90;99.90;;;;;;5045310;28;20485;-69
2022/07/30 08:50:58;;;;;;;9.40;4.93;;;21.90;99.90;;;;;;5044988;28;20499;-67
2022/07/30 08:53:26;;;;;;;8.03;4.50;;;22.00;99.90;;;;;;5045807;28;20453;-77
2022/07/30 08:55:54;;;;;;;8.97;4.30;;;22.10;99.90;;;;;;5046337;28;20453;-78
2022/07/30 08:58:28;;;;;;;5.50;4.30;;;22.20;99.90;;;;;;5045106;28;20464;-73
2022/07/30 09:00:55;;;;;;;5.40;3.77;;;22.30;99.90;;;;;;5045286;28;20481;-73
2022/07/30 09:03:22;;;;;;;5.47;4.20;;;22.40;99.90;;;;;;5045636;28;20484;-73
2022/07/30 09:05:49;;;;;;;7.93;5.07;;;22.40;99.90;;;;;;5044670;28;20461;-72
2022/07/30 09:08:16;;;;;;;6.10;3.77;;;22.50;99.90;;;;;;5044853;28;20453;-68
2022/07/30 09:10:44;;;;;;;7.17;4.17;;;22.50;99.90;;;;;;5045336;28;20872;-68
2022/07/30 09:13:26;;;;;;;10.13;5.50;;;22.60;99.90;;;;;;5046887;28;20940;-68
2022/07/30 09:15:53;;;;;;;7.37;5.60;;;22.70;99.90;;;;;;5048773;28;20472;-66
2022/07/30 09:18:28;;;;;;;5.10;4.10;;;22.80;99.90;;;;;;5049440;28;20480;-68
2022/07/30 09:20:55;;;;;;;7.53;3.73;;;22.90;99.90;;;;;;5049162;28;20480;-68
2022/07/30 09:23:22;;;;;;;6.10;4.80;;;23.00;99.90;;;;;;5049014;28;20461;-68
2022/07/30 09:25:50;;;;;;;8.03;4.80;;;23.00;99.90;;;;;;5048495;28;20905;-68
2022/07/30 09:28:28;;;;;;;8.13;4.40;;;23.20;99.90;;;;;;5047767;28;20465;-66
2022/07/30 09:30:57;;;;;;;10.30;4.03;;;23.20;99.90;;;;;;5047951;28;20495;-67
2022/07/30 09:33:38;;;;;;;4.47;4.03;;;23.20;99.90;;;;;;5048935;28;20534;-69
2022/07/30 09:36:06;;;;;;;5.23;3.90;;;23.30;99.90;;;;;;5048148;28;20441;-65
2022/07/30 09:38:43;;;;;;;8.50;4.40;;;23.40;99.90;;;;;;5048688;28;20461;-71
2022/07/30 09:41:11;;;;;;;5.70;4.00;;;23.50;99.90;;;;;;5049182;28;20483;-71
2022/07/30 09:43:46;;;;;;;6.40;4.13;;;23.50;99.90;;;;;;5048262;28;20461;-65
2022/07/30 09:46:13;;;;;;;7.50;4.00;;;23.50;99.90;;;;;;5047887;28;20460;-69
2022/07/30 09:48:40;;;;;;;7.97;3.93;;;23.60;99.90;;;;;;5048834;28;20460;-68
2022/07/30 09:51:07;;;;;;;5.20;3.40;;;23.60;99.90;;;;;;5048447;28;20496;-68
2022/07/30 09:53:34;;;;;;;5.33;4.00;;;23.60;99.90;;;;;;5047654;28;20463;-71
2022/07/30 09:56:02;;;;;;;4.67;2.83;;;23.70;99.90;;;;;;5047233;28;20971;-69
2022/07/30 09:58:39;;;;;;;3.83;3.07;;;23.80;99.90;;;;;;5048350;28;20915;-68
2022/07/30 10:01:08;;;;;;;6.37;3.60;;;23.80;99.90;;;;;;5048183;28;20487;-68
2022/07/30 10:03:42;;;;;;;6.30;3.73;;;23.90;99.90;;;;;;5048337;28;20471;-68
2022/07/30 10:06:09;;;;;;;6.23;3.60;;;23.90;99.90;;;;;;5047916;28;20444;-68
2022/07/30 10:08:41;;;;;;;5.60;3.60;;;24.00;99.90;;;;;;5048150;28;20460;-70
2022/07/30 10:11:10;;;;;;;10.93;4.00;;;24.10;99.90;;;;;;5048214;28;20584;-68
2022/07/30 10:13:39;;;;;;;9.50;3.87;;;24.20;99.90;;;;;;5048497;28;21109;-68
2022/07/30 10:16:07;;;;;;;7.03;4.10;;;24.20;99.90;;;;;;5047529;28;20837;-69
2022/07/30 10:18:35;;;;;;;5.80;3.97;;;24.20;99.90;;;;;;5048068;28;20453;-72
2022/07/30 10:21:02;;;;;;;4.93;3.67;;;24.30;99.90;;;;;;5047667;28;20472;-68
2022/07/30 10:23:31;;;;;;;5.50;3.50;;;24.40;99.90;;;;;;5048331;28;20470;-67
2022/07/30 10:25:59;;;;;;;10.00;3.90;;;24.40;99.90;;;;;;5046695;28;20522;-67
2022/07/30 10:28:27;;;;;;;5.00;3.57;;;24.40;99.90;;;;;;5048016;28;20465;-67
2022/07/30 10:30:57;;;;;;;5.87;3.30;;;24.40;99.90;;;;;;5047791;28;20502;-67
2022/07/30 10:33:27;;;;;;;5.27;3.50;;;24.40;99.90;;;;;;5047599;28;20465;-70
2022/07/30 10:35:54;;;;;;;5.90;3.20;;;24.40;99.90;;;;;;5047515;28;20464;-67
2022/07/30 10:38:23;;;;;;;4.20;3.40;;;24.50;99.90;;;;;;5047927;28;20547;-68
2022/07/30 10:40:53;;;;;;;7.57;3.47;;;24.50;99.90;;;;;;5047553;28;20828;-68
2022/07/30 10:43:56;;;;;;;8.27;3.13;;;24.50;99.90;;;;;;5048148;28;20468;-68
2022/07/30 10:46:37;;;;;;;10.90;3.20;;;24.50;99.90;;;;;;5043827;28;20980;-67
2022/07/30 10:49:11;;;;;;;4.30;3.23;;;24.60;99.90;;;;;;5047410;28;20964;-68
2022/07/30 10:51:47;;;;;;;5.63;3.30;;;24.50;99.90;;;;;;5047058;28;20500;-67
2022/07/30 10:54:39;;;;;;;4.20;2.90;;;24.60;99.90;;;;;;5047338;28;20481;-68
2022/07/30 10:57:09;;;;;;;13.80;3.90;;;24.70;99.90;;;;;;5047384;28;20480;-68
2022/07/30 11:00:10;;;;;;;6.30;3.07;;;24.70;99.90;;;;;;5047139;28;20956;-69
2022/07/30 11:02:39;;;;;;;4.93;3.37;;;24.80;99.90;;;;;;5047178;28;21220;-66
2022/07/30 11:05:27;;;;;;;6.70;2.93;;;24.80;99.90;;;;;;5046819;28;20465;-68
2022/07/30 11:07:54;;;;;;;4.43;3.30;;;24.90;99.90;;;;;;5047484;28;20491;-68
2022/07/30 11:10:38;;;;;;;10.00;3.67;;;24.90;99.90;;;;;;5047109;28;20475;-68
2022/07/30 11:13:06;;;;;;;5.83;2.90;;;25.00;99.90;;;;;;5047032;28;20453;-69
2022/07/30 11:15:53;;;;;;;4.40;3.10;;;25.00;99.90;;;;;;5046550;28;20549;-68
2022/07/30 11:18:23;;;;;;;10.70;3.80;;;25.00;99.90;;;;;;5046915;28;20457;-68
2022/07/30 11:21:16;;;;;;;4.37;3.20;;;25.00;99.90;;;;;;5046997;28;21174;-68
2022/07/30 11:23:44;;;;;;;3.60;2.67;;;25.10;99.90;;;;;;5046223;28;20551;-69
2022/07/30 11:26:50;;;;;;;5.87;3.50;;;25.20;99.90;;;;;;5046141;28;20548;-69
2022/07/30 11:29:44;;;;;;;3.90;2.77;;;25.20;99.90;;;;;;5046965;28;20452;-69
2022/07/30 11:32:28;;;;;;;14.83;3.60;;;25.20;99.90;;;;;;4988593;28;20995;-69
2022/07/30 11:35:17;;;;;;;5.93;3.27;;;25.20;99.90;;;;;;5046194;28;20496;-69
2022/07/30 11:37:59;;;;;;;5.30;3.50;;;25.30;99.90;;;;;;5046366;28;20519;-69
2022/07/30 11:40:27;;;;;;;6.93;3.43;;;25.40;99.90;;;;;;5046134;28;20437;-69
2022/07/30 11:43:16;;;;;;;5.00;3.07;;;25.40;99.90;;;;;;5046683;28;20471;-69
2022/07/30 11:45:44;;;;;;;5.80;2.93;;;25.50;99.90;;;;;;5045760;28;20456;-69
2022/07/30 11:48:12;;;;;;;3.50;2.97;;;25.60;99.90;;;;;;5046449;28;20453;-70
2022/07/30 11:50:42;;;;;;;4.60;3.40;;;25.60;99.90;;;;;;5045757;28;20472;-70
2022/07/30 11:53:13;;;;;;;4.30;2.80;;;25.70;99.90;;;;;;5046369;28;20547;-70
2022/07/30 11:55:42;;;;;;;3.80;2.80;;;25.60;99.90;;;;;;5045664;28;20441;-69
2022/07/30 11:58:11;;;;;;;12.30;3.30;;;25.70;99.90;;;;;;5045957;28;20456;-68
2022/07/30 12:00:39;;;;;;;4.10;2.50;;;25.70;99.90;;;;;;5045767;28;21004;-68
2022/07/30 12:03:11;;;;;;;4.20;2.80;;;25.70;99.90;;;;;;5045815;28;20461;-68
2022/07/30 12:05:40;;;;;;;5.63;2.87;;;25.70;99.90;;;;;;5045223;28;20463;-70
2022/07/30 12:08:07;;;;;;;5.77;2.90;;;25.70;99.90;;;;;;5046016;28;20533;-67
2022/07/30 12:10:37;;;;;;;4.87;2.50;;;25.90;99.90;;;;;;5045879;28;20484;-69
2022/07/30 12:13:09;;;;;;;4.07;2.57;;;26.00;99.90;;;;;;5046192;28;20850;-69
2022/07/30 12:15:37;;;;;;;2.53;2.33;;;26.00;99.90;;;;;;5045060;28;20564;-67
2022/07/30 12:18:04;;;;;;;4.57;2.60;;;26.10;99.90;;;;;;5045896;28;20460;-68
2022/07/30 12:20:31;;;;;;;5.77;2.87;;;26.00;99.90;;;;;;5045971;28;20460;-67
2022/07/30 12:23:01;;;;;;;3.50;2.23;;;26.10;99.90;;;;;;5045852;28;20449;-67
2022/07/30 12:25:28;;;;;;;6.27;2.60;;;26.10;99.90;;;;;;5044900;28;20492;-68
2022/07/30 12:27:55;;;;;;;2.97;2.50;;;26.20;99.90;;;;;;5045604;28;20541;-68
2022/07/30 12:30:23;;;;;;;4.03;2.73;;;26.10;99.90;;;;;;5045467;28;20456;-67
2022/07/30 12:32:50;;;;;;;3.57;2.53;;;26.10;99.90;;;;;;5045653;28;20534;-67
2022/07/30 12:35:17;;;;;;;4.17;2.40;;;26.10;99.90;;;;;;5044542;28;20464;-67
2022/07/30 12:38:04;;;;;;;3.57;2.13;;;26.20;99.90;;;;;;5045212;28;20666;-67
2022/07/30 12:40:31;;;;;;;2.33;2.10;;;26.10;99.90;;;;;;5045335;28;20465;-67
2022/07/30 12:42:58;;;;;;;3.33;2.10;;;26.20;99.90;;;;;;5045333;28;20961;-67
2022/07/30 12:45:29;;;;;;;6.20;2.20;;;26.20;99.90;;;;;;5044733;28;20449;-68
2022/07/30 12:47:56;;;;;;;6.30;2.27;;;26.20;99.90;;;;;;5045012;28;20463;-68
2022/07/30 12:50:23;;;;;;;8.47;2.33;;;26.30;99.90;;;;;;5044975;28;21104;-67
2022/07/30 12:52:51;;;;;;;4.60;2.17;;;26.40;99.90;;;;;;5044890;28;20493;-68
2022/07/30 12:55:29;;;;;;;3.97;2.00;;;26.40;99.90;;;;;;5044616;28;20514;-67
2022/07/30 12:57:58;;;;;;;7.87;2.30;;;26.50;99.90;;;;;;5045450;28;20448;-64
2022/07/30 13:00:27;;;;;;;6.80;3.07;;;26.70;99.90;;;;;;5045375;28;20547;-67
2022/07/30 13:02:55;;;;;;;3.80;2.07;;;26.70;99.90;;;;;;5045203;28;20974;-67
2022/07/30 13:05:37;;;;;;;5.20;2.43;;;26.80;99.90;;;;;;5044654;28;20459;-68
2022/07/30 13:08:04;;;;;;;4.30;2.60;;;26.90;99.90;;;;;;5044778;28;20461;-67
2022/07/30 13:10:32;;;;;;;2.80;2.47;;;26.90;99.90;;;;;;5045165;28;20456;-67
2022/07/30 13:12:59;;;;;;;3.73;2.33;;;26.90;99.90;;;;;;5045312;28;20488;-67
2022/07/30 13:15:26;;;;;;;4.17;2.33;;;26.90;99.90;;;;;;5044440;28;20491;-67
2022/07/30 13:17:53;;;;;;;12.80;2.70;;;26.90;99.90;;;;;;5045271;28;20944;-67
2022/07/30 13:20:20;;;;;;;2.73;2.03;;;26.90;99.90;;;;;;5044958;28;20471;-70
2022/07/30 13:22:47;;;;;;;4.17;2.20;;;26.90;99.90;;;;;;5045159;28;20453;-67
2022/07/30 13:25:14;;;;;;;3.63;2.40;;;26.90;99.90;;;;;;5044711;28;20460;-67
2022/07/30 13:27:42;;;;;;;3.10;2.67;;;27.00;99.90;;;;;;5045244;28;20911;-68
2022/07/30 13:30:10;;;;;;;3.50;2.27;;;27.10;99.90;;;;;;5044986;28;20952;-68
2022/07/30 13:32:37;;;;;;;4.33;2.20;;;27.10;99.90;;;;;;5045047;28;20492;-69
2022/07/30 13:35:05;;;;;;;2.90;2.60;;;27.20;99.90;;;;;;5044371;28;20457;-69
2022/07/30 13:37:31;;;;;;;3.50;2.37;;;27.30;99.90;;;;;;5044961;28;20456;-68
2022/07/30 13:39:58;;;;;;;2.80;2.50;;;27.40;99.90;;;;;;5044922;28;20480;-68
2022/07/30 13:42:25;;;;;;;3.70;2.60;;;27.40;99.90;;;;;;5045049;28;20513;-68
2022/07/30 13:44:53;;;;;;;2.90;2.00;;;27.40;99.90;;;;;;5043854;28;20453;-69
2022/07/30 13:47:20;;;;;;;3.87;2.50;;;27.50;99.90;;;;;;5045138;28;20461;-69
2022/07/30 13:49:49;;;;;;;3.03;2.40;;;27.60;99.90;;;;;;5044953;28;20469;-68
2022/07/30 13:52:16;;;;;;;3.93;2.40;;;27.60;99.90;;;;;;5044762;28;20493;-68
2022/07/30 13:54:43;;;;;;;6.17;2.60;;;27.70;99.90;;;;;;5043999;28;20461;-70
2022/07/30 13:57:10;;;;;;;10.70;3.00;;;27.70;99.90;;;;;;5045152;28;20834;-66
2022/07/30 13:59:37;;;;;;;2.73;2.40;;;27.70;99.90;;;;;;5045694;28;20461;-68
2022/07/30 14:02:05;;;;;;;6.37;2.30;;;27.70;99.90;;;;;;5048074;28;20477;-68
2022/07/30 14:04:32;;;;;;;7.83;2.37;;;27.70;99.90;;;;;;5047743;28;20484;-69
2022/07/30 14:06:59;;;;;;;4.20;2.40;;;27.60;99.90;;;;;;5048621;28;20453;-69
2022/07/30 14:09:26;;;;;;;4.23;2.70;;;27.60;99.90;;;;;;5048151;28;20460;-68
2022/07/30 14:11:53;;;;;;;3.80;2.70;;;27.70;99.90;;;;;;5048059;28;20496;-68
2022/07/30 14:14:21;;;;;;;7.27;2.40;;;27.70;99.90;;;;;;5047527;28;20453;-69
2022/07/30 14:16:51;;;;;;;5.83;3.20;;;27.60;99.90;;;;;;5048386;28;20514;-68
2022/07/30 14:19:19;;;;;;;3.60;2.77;;;27.70;99.90;;;;;;5048012;28;20457;-64
2022/07/30 14:21:46;;;;;;;4.23;2.20;;;27.70;99.90;;;;;;5048267;28;20472;-65
2022/07/30 14:24:14;;;;;;;6.13;2.30;;;27.80;99.90;;;;;;5047526;28;20461;-68
2022/07/30 14:26:41;;;;;;;2.30;2.10;;;27.80;99.90;;;;;;5048098;28;20456;-68
2022/07/30 14:29:08;;;;;;;4.00;2.20;;;27.90;99.90;;;;;;5047755;28;20457;-66
2022/07/30 14:31:35;;;;;;;6.20;2.00;;;27.90;99.90;;;;;;5048093;28;20485;-66
2022/07/30 14:34:03;;;;;;;2.97;2.00;;;27.80;99.90;;;;;;5047318;28;20463;-66
2022/07/30 14:36:32;;;;;;;5.83;2.07;;;27.80;99.90;;;;;;5047346;28;20463;-66
2022/07/30 14:39:00;;;;;;;6.67;2.27;;;27.80;99.90;;;;;;5047349;28;20482;-66
2022/07/30 14:41:28;;;;;;;8.23;2.73;;;27.80;99.90;;;;;;5047538;28;20489;-67
2022/07/30 14:43:55;;;;;;;5.10;2.23;;;27.90;99.90;;;;;;5047877;28;20471;-65
2022/07/30 14:46:22;;;;;;;3.60;2.20;;;27.90;99.90;;;;;;5047477;28;20468;-63
2022/07/30 14:48:49;;;;;;;3.40;2.37;;;27.90;99.90;;;;;;5047724;28;20488;-66
2022/07/30 14:51:16;;;;;;;3.30;2.23;;;28.00;99.90;;;;;;5047717;28;20546;-66
2022/07/30 14:53:45;;;;;;;3.00;2.07;;;28.00;99.90;;;;;;5047236;28;21047;-66
2022/07/30 14:56:13;;;;;;;2.80;2.00;;;28.00;99.90;;;;;;5046660;28;20465;-65
2022/07/30 14:58:40;;;;;;;1.97;1.70;;;28.00;99.90;;;;;;5047091;28;21020;-64
2022/07/30 15:01:06;;;;;;;2.90;2.20;;;28.00;99.90;;;;;;5047096;28;20489;-65
2022/07/30 15:03:34;;;;;;;2.40;2.10;;;28.00;99.90;;;;;;5047523;28;20449;-64
2022/07/30 15:06:01;;;;;;;4.10;2.20;;;28.00;99.90;;;;;;5046836;28;20507;-65
2022/07/30 15:08:28;;;;;;;5.50;2.10;;;28.10;99.90;;;;;;5047336;28;20479;-65
2022/07/30 15:10:56;;;;;;;4.70;2.53;;;28.00;99.90;;;;;;5046577;28;20485;-67
2022/07/30 15:13:23;;;;;;;4.67;2.53;;;28.00;99.90;;;;;;5047362;28;20496;-65
2022/07/30 15:15:50;;;;;;;2.93;2.20;;;28.00;99.90;;;;;;5046382;28;20796;-67
2022/07/30 15:18:17;;;;;;;5.40;2.10;;;27.90;99.90;;;;;;5046923;28;20461;-64
2022/07/30 15:20:44;;;;;;;8.57;2.77;;;27.90;99.90;;;;;;5046763;28;20477;-63
2022/07/30 15:23:11;;;;;;;4.07;2.13;;;27.90;99.90;;;;;;5047077;28;20536;-67
2022/07/30 15:25:38;;;;;;;4.43;3.63;;;27.90;99.90;;;;;;5046349;28;20452;-66
2022/07/30 15:28:06;;;;;;;3.00;2.00;;;27.90;99.90;;;;;;5046944;28;20459;-66
2022/07/30 15:30:33;;;;;;;6.47;2.70;;;28.00;99.90;;;;;;5046865;28;20477;-64
2022/07/30 15:33:00;;;;;;;28.00;25.90;;;28.00;99.90;;;;;;5046630;28;20491;-71
2022/07/30 15:35:27;;;;;;;3.70;2.10;;;28.10;99.90;;;;;;5046421;28;20871;-70
2022/07/30 15:37:53;;;;;;;2.47;1.70;;;28.20;99.90;;;;;;5046306;28;20460;-71
2022/07/30 15:40:20;;;;;;;4.70;2.07;;;28.20;99.90;;;;;;5046821;28;20461;-67
2022/07/30 15:42:47;;;;;;;17.90;16.37;;;28.20;99.90;;;;;;5046448;28;20806;-65
2022/07/30 15:45:16;;;;;;;3.40;2.20;;;28.20;99.90;;;;;;5045628;28;20463;-68
2022/07/30 15:47:42;;;;;;;3.13;2.10;;;28.30;99.90;;;;;;5046215;28;20957;-68
2022/07/30 15:50:10;;;;;;;3.90;2.50;;;28.30;99.90;;;;;;5028744;28;20556;-68
2022/07/30 15:52:37;;;;;;;4.10;1.93;;;28.40;99.90;;;;;;5046392;28;20504;-65
2022/07/30 15:55:05;;;;;;;6.70;2.03;;;28.50;99.90;;;;;;5044988;28;20469;-65
2022/07/30 15:57:32;;;;;;;4.13;2.13;;;28.50;99.90;;;;;;5046318;28;20475;-68
2022/07/30 15:59:59;;;;;;;3.63;2.00;;;28.50;99.90;;;;;;5046237;28;20838;-73
2022/07/30 16:02:27;;;;;;;2.20;1.60;;;28.60;99.90;;;;;;5046121;28;20485;-68
2022/07/30 16:04:54;;;;;;;2.23;2.00;;;28.60;99.90;;;;;;5045163;28;20476;-68
2022/07/30 16:07:21;;;;;;;2.13;1.93;;;28.60;99.90;;;;;;5046141;28;20506;-68
2022/07/30 16:09:48;;;;;;;6.27;2.80;;;28.60;99.90;;;;;;5046405;28;20483;-69
2022/07/30 16:12:15;;;;;;;5.10;2.53;;;28.60;99.90;;;;;;5045744;28;21008;-68
2022/07/30 16:14:42;;;;;;;4.87;2.10;;;28.60;99.90;;;;;;5045313;28;20457;-69
2022/07/30 16:17:10;;;;;;;2.57;2.10;;;28.60;99.90;;;;;;5045907;28;20949;-68
2022/07/30 16:19:38;;;;;;;2.70;1.57;;;28.50;99.90;;;;;;5045928;28;20540;-68
2022/07/30 16:22:05;;;;;;;4.17;1.80;;;28.50;99.90;;;;;;5045347;28;20481;-68
2022/07/30 16:24:32;;;;;;;2.43;1.90;;;28.50;99.90;;;;;;5044652;28;20465;-67
2022/07/30 16:26:59;;;;;;;3.87;2.03;;;28.40;99.90;;;;;;5045571;28;20457;-68
2022/07/30 16:29:26;;;;;;;5.30;2.23;;;28.30;99.90;;;;;;5045636;28;20557;-68
2022/07/30 16:31:53;;;;;;;3.20;1.97;;;28.30;99.90;;;;;;5045422;28;21009;-68
2022/07/30 16:34:20;;;;;;;3.50;2.10;;;28.30;99.90;;;;;;5044653;28;20500;-68
2022/07/30 16:36:48;;;;;;;6.20;2.17;;;28.30;99.90;;;;;;5045595;28;20469;-68
2022/07/30 16:39:15;;;;;;;3.33;2.10;;;28.40;99.90;;;;;;5045687;28;20563;-69
2022/07/30 16:41:42;;;;;;;5.37;2.30;;;28.40;99.90;;;;;;5045448;28;20516;-67
2022/07/30 16:44:09;;;;;;;3.80;2.30;;;28.40;99.90;;;;;;5045315;28;20452;-73
2022/07/30 16:46:37;;;;;;;2.47;1.80;;;28.50;99.90;;;;;;5046082;28;20459;-80
2022/07/30 16:49:04;;;;;;;2.93;2.10;;;28.50;99.90;;;;;;5045953;28;20465;-76
2022/07/30 16:51:31;;;;;;;3.07;2.03;;;28.50;99.90;;;;;;5045469;28;20587;-76
2022/07/30 16:53:59;;;;;;;2.97;1.93;;;28.50;99.90;;;;;;5045146;28;21011;-76